sensor_id;sensor_type;location;lat;lon;timestamp;P1;durP1;ratioP1;P2;durP2;ratioP2
12567;SDS011;6349;50.904;6.136;2022-12-29T00:01:25;0.63;;;0.30;;
12567;SDS011;6349;50.904;6.136;2022-12-29T00:03:26;0.40;;;0.40;;
12567;SDS011;6349;50.904;6.136;2022-12-29T00:05:27;0.90;;;0.33;;
12567;SDS011;6349;50.904;6.136;2022-12-29T00:07:28;0.40;;;0.40;;
12567;SDS011;6349;50.904;6.136;2022-12-29T00:09:32;0.30;;;0.30;;
12567;SDS011;6349;50.904;6.136;2022-12-29T00:11:34;0.70;;;0.37;;
12567;SDS011;6349;50.904;6.136;2022-12-29T00:13:34;0.40;;;0.40;;
12567;SDS011;6349;50.904;6.136;2022-12-29T00:15:55;0.53;;;0.40;;
12567;SDS011;6349;50.904;6.136;2022-12-29T00:17:56;0.30;;;0.30;;
12567;SDS011;6349;50.904;6.136;2022-12-29T00:19:57;1.60;;;0.40;;
12567;SDS011;6349;50.904;6.136;2022-12-29T00:22:18;1.03;;;0.60;;
12567;SDS011;6349;50.904;6.136;2022-12-29T00:24:38;0.40;;;0.40;;
12567;SDS011;6349;50.904;6.136;2022-12-29T00:29:14;0.83;;;0.50;;
12567;SDS011;6349;50.904;6.136;2022-12-29T00:31:34;0.30;;;0.30;;
12567;SDS011;6349;50.904;6.136;2022-12-29T00:33:55;0.63;;;0.53;;
12567;SDS011;6349;50.904;6.136;2022-12-29T00:36:18;0.20;;;0.20;;
12567;SDS011;6349;50.904;6.136;2022-12-29T00:38:21;0.20;;;0.20;;
12567;SDS011;6349;50.904;6.136;2022-12-29T00:40:42;0.20;;;0.20;;
12567;SDS011;6349;50.904;6.136;2022-12-29T00:43:03;0.20;;;0.20;;
12567;SDS011;6349;50.904;6.136;2022-12-29T00:45:23;0.37;;;0.37;;
12567;SDS011;6349;50.904;6.136;2022-12-29T00:47:24;1.80;;;0.30;;
12567;SDS011;6349;50.904;6.136;2022-12-29T00:49:25;0.30;;;0.30;;
12567;SDS011;6349;50.904;6.136;2022-12-29T00:51:32;0.97;;;0.33;;
12567;SDS011;6349;50.904;6.136;2022-12-29T00:53:33;0.20;;;0.20;;
12567;SDS011;6349;50.904;6.136;2022-12-29T00:55:37;0.40;;;0.40;;
12567;SDS011;6349;50.904;6.136;2022-12-29T00:57:40;0.40;;;0.30;;
12567;SDS011;6349;50.904;6.136;2022-12-29T00:59:41;0.47;;;0.40;;
12567;SDS011;6349;50.904;6.136;2022-12-29T01:01:42;0.60;;;0.57;;
12567;SDS011;6349;50.904;6.136;2022-12-29T01:03:43;0.27;;;0.20;;
12567;SDS011;6349;50.904;6.136;2022-12-29T01:05:45;0.40;;;0.30;;
12567;SDS011;6349;50.904;6.136;2022-12-29T01:07:46;1.47;;;0.40;;
12567;SDS011;6349;50.904;6.136;2022-12-29T01:09:46;0.50;;;0.50;;
12567;SDS011;6349;50.904;6.136;2022-12-29T01:12:07;0.50;;;0.30;;
12567;SDS011;6349;50.904;6.136;2022-12-29T01:14:09;1.13;;;0.53;;
12567;SDS011;6349;50.904;6.136;2022-12-29T01:16:09;1.07;;;0.40;;
12567;SDS011;6349;50.904;6.136;2022-12-29T01:18:10;0.70;;;0.50;;
12567;SDS011;6349;50.904;6.136;2022-12-29T01:20:10;0.97;;;0.60;;
12567;SDS011;6349;50.904;6.136;2022-12-29T01:22:12;0.80;;;0.77;;
12567;SDS011;6349;50.904;6.136;2022-12-29T01:24:13;1.07;;;0.60;;
12567;SDS011;6349;50.904;6.136;2022-12-29T01:26:15;0.60;;;0.60;;
12567;SDS011;6349;50.904;6.136;2022-12-29T01:28:17;0.70;;;0.60;;
12567;SDS011;6349;50.904;6.136;2022-12-29T01:30:18;0.90;;;0.53;;
12567;SDS011;6349;50.904;6.136;2022-12-29T01:32:18;1.67;;;0.60;;
12567;SDS011;6349;50.904;6.136;2022-12-29T01:34:19;1.10;;;0.90;;
12567;SDS011;6349;50.904;6.136;2022-12-29T01:36:20;1.43;;;0.80;;
12567;SDS011;6349;50.904;6.136;2022-12-29T01:38:20;2.20;;;0.90;;
12567;SDS011;6349;50.904;6.136;2022-12-29T01:40:21;0.60;;;0.60;;
12567;SDS011;6349;50.904;6.136;2022-12-29T01:42:23;0.73;;;0.57;;
12567;SDS011;6349;50.904;6.136;2022-12-29T01:44:58;1.43;;;0.90;;
12567;SDS011;6349;50.904;6.136;2022-12-29T01:46:52;0.73;;;0.50;;
12567;SDS011;6349;50.904;6.136;2022-12-29T01:48:55;0.50;;;0.50;;
12567;SDS011;6349;50.904;6.136;2022-12-29T01:51:12;0.50;;;0.50;;
12567;SDS011;6349;50.904;6.136;2022-12-29T01:53:14;1.73;;;0.90;;
12567;SDS011;6349;50.904;6.136;2022-12-29T01:55:18;0.70;;;0.70;;
12567;SDS011;6349;50.904;6.136;2022-12-29T01:57:21;0.93;;;0.67;;
12567;SDS011;6349;50.904;6.136;2022-12-29T01:59:29;1.50;;;0.60;;
12567;SDS011;6349;50.904;6.136;2022-12-29T02:01:34;0.90;;;0.70;;
12567;SDS011;6349;50.904;6.136;2022-12-29T02:03:35;1.57;;;0.70;;
12567;SDS011;6349;50.904;6.136;2022-12-29T02:05:42;0.83;;;0.70;;
12567;SDS011;6349;50.904;6.136;2022-12-29T02:07:52;0.70;;;0.70;;
12567;SDS011;6349;50.904;6.136;2022-12-29T02:09:54;1.50;;;1.00;;
12567;SDS011;6349;50.904;6.136;2022-12-29T02:11:56;1.50;;;0.83;;
12567;SDS011;6349;50.904;6.136;2022-12-29T02:13:58;0.70;;;0.60;;
12567;SDS011;6349;50.904;6.136;2022-12-29T02:16:06;1.60;;;0.90;;
12567;SDS011;6349;50.904;6.136;2022-12-29T02:20:59;0.80;;;0.67;;
12567;SDS011;6349;50.904;6.136;2022-12-29T02:23:37;1.00;;;0.70;;
12567;SDS011;6349;50.904;6.136;2022-12-29T02:28:45;1.00;;;0.60;;
12567;SDS011;6349;50.904;6.136;2022-12-29T02:31:27;0.67;;;0.50;;
12567;SDS011;6349;50.904;6.136;2022-12-29T02:35:51;2.17;;;1.10;;
12567;SDS011;6349;50.904;6.136;2022-12-29T02:38:34;0.83;;;0.60;;
12567;SDS011;6349;50.904;6.136;2022-12-29T02:41:34;1.50;;;0.73;;
12567;SDS011;6349;50.904;6.136;2022-12-29T02:43:33;0.63;;;0.60;;
12567;SDS011;6349;50.904;6.136;2022-12-29T02:45:55;0.60;;;0.53;;
12567;SDS011;6349;50.904;6.136;2022-12-29T02:50:33;0.80;;;0.43;;
12567;SDS011;6349;50.904;6.136;2022-12-29T02:52:55;0.90;;;0.50;;
12567;SDS011;6349;50.904;6.136;2022-12-29T02:54:59;0.43;;;0.40;;
12567;SDS011;6349;50.904;6.136;2022-12-29T02:57:00;1.67;;;0.70;;
12567;SDS011;6349;50.904;6.136;2022-12-29T02:59:01;0.67;;;0.60;;
12567;SDS011;6349;50.904;6.136;2022-12-29T03:01:12;0.97;;;0.40;;
12567;SDS011;6349;50.904;6.136;2022-12-29T03:06:40;1.20;;;0.63;;
12567;SDS011;6349;50.904;6.136;2022-12-29T03:08:38;0.80;;;0.40;;
12567;SDS011;6349;50.904;6.136;2022-12-29T03:10:52;1.30;;;0.70;;
12567;SDS011;6349;50.904;6.136;2022-12-29T03:18:27;0.57;;;0.37;;
12567;SDS011;6349;50.904;6.136;2022-12-29T03:20:55;0.57;;;0.40;;
12567;SDS011;6349;50.904;6.136;2022-12-29T03:23:02;0.40;;;0.37;;
12567;SDS011;6349;50.904;6.136;2022-12-29T03:25:08;0.73;;;0.50;;
12567;SDS011;6349;50.904;6.136;2022-12-29T03:27:16;1.17;;;0.57;;
12567;SDS011;6349;50.904;6.136;2022-12-29T03:29:21;1.90;;;0.60;;
12567;SDS011;6349;50.904;6.136;2022-12-29T03:31:22;0.40;;;0.40;;
12567;SDS011;6349;50.904;6.136;2022-12-29T03:33:25;0.40;;;0.40;;
12567;SDS011;6349;50.904;6.136;2022-12-29T03:35:29;1.73;;;0.73;;
12567;SDS011;6349;50.904;6.136;2022-12-29T03:37:35;2.70;;;0.50;;
12567;SDS011;6349;50.904;6.136;2022-12-29T03:39:39;0.63;;;0.47;;
12567;SDS011;6349;50.904;6.136;2022-12-29T03:41:41;0.50;;;0.50;;
12567;SDS011;6349;50.904;6.136;2022-12-29T03:43:44;0.60;;;0.53;;
12567;SDS011;6349;50.904;6.136;2022-12-29T03:45:46;0.53;;;0.53;;
12567;SDS011;6349;50.904;6.136;2022-12-29T03:47:46;1.20;;;0.67;;
12567;SDS011;6349;50.904;6.136;2022-12-29T03:49:47;0.77;;;0.70;;
12567;SDS011;6349;50.904;6.136;2022-12-29T03:51:49;0.60;;;0.60;;
12567;SDS011;6349;50.904;6.136;2022-12-29T03:53:49;1.70;;;0.60;;
12567;SDS011;6349;50.904;6.136;2022-12-29T03:55:50;0.50;;;0.50;;
12567;SDS011;6349;50.904;6.136;2022-12-29T03:57:51;1.03;;;0.80;;
12567;SDS011;6349;50.904;6.136;2022-12-29T03:59:52;0.60;;;0.50;;
12567;SDS011;6349;50.904;6.136;2022-12-29T04:01:52;0.57;;;0.57;;
12567;SDS011;6349;50.904;6.136;2022-12-29T04:03:53;0.53;;;0.50;;
12567;SDS011;6349;50.904;6.136;2022-12-29T04:05:55;0.70;;;0.60;;
12567;SDS011;6349;50.904;6.136;2022-12-29T04:07:56;0.80;;;0.80;;
12567;SDS011;6349;50.904;6.136;2022-12-29T04:09:57;0.40;;;0.40;;
12567;SDS011;6349;50.904;6.136;2022-12-29T04:11:57;0.60;;;0.53;;
12567;SDS011;6349;50.904;6.136;2022-12-29T04:13:58;0.73;;;0.60;;
12567;SDS011;6349;50.904;6.136;2022-12-29T04:15:59;1.00;;;0.63;;
12567;SDS011;6349;50.904;6.136;2022-12-29T04:17:59;1.93;;;0.70;;
12567;SDS011;6349;50.904;6.136;2022-12-29T04:20:00;0.70;;;0.70;;
12567;SDS011;6349;50.904;6.136;2022-12-29T04:22:21;0.90;;;0.50;;
12567;SDS011;6349;50.904;6.136;2022-12-29T04:24:22;1.73;;;0.70;;
12567;SDS011;6349;50.904;6.136;2022-12-29T04:26:24;1.47;;;0.70;;
12567;SDS011;6349;50.904;6.136;2022-12-29T04:28:24;0.70;;;0.60;;
12567;SDS011;6349;50.904;6.136;2022-12-29T04:30:26;1.00;;;0.80;;
12567;SDS011;6349;50.904;6.136;2022-12-29T04:32:27;1.60;;;0.80;;
12567;SDS011;6349;50.904;6.136;2022-12-29T04:34:28;1.63;;;0.87;;
12567;SDS011;6349;50.904;6.136;2022-12-29T04:36:28;1.87;;;0.73;;
12567;SDS011;6349;50.904;6.136;2022-12-29T04:38:29;0.90;;;0.57;;
12567;SDS011;6349;50.904;6.136;2022-12-29T04:40:30;1.17;;;0.70;;
12567;SDS011;6349;50.904;6.136;2022-12-29T04:42:31;1.37;;;0.70;;
12567;SDS011;6349;50.904;6.136;2022-12-29T04:44:32;1.77;;;0.60;;
12567;SDS011;6349;50.904;6.136;2022-12-29T04:46:33;1.10;;;0.70;;
12567;SDS011;6349;50.904;6.136;2022-12-29T04:48:33;0.73;;;0.60;;
12567;SDS011;6349;50.904;6.136;2022-12-29T04:50:34;1.57;;;0.60;;
12567;SDS011;6349;50.904;6.136;2022-12-29T04:52:35;1.00;;;0.90;;
12567;SDS011;6349;50.904;6.136;2022-12-29T04:54:36;0.77;;;0.70;;
12567;SDS011;6349;50.904;6.136;2022-12-29T04:56:37;1.47;;;0.67;;
12567;SDS011;6349;50.904;6.136;2022-12-29T04:58:38;1.90;;;0.90;;
12567;SDS011;6349;50.904;6.136;2022-12-29T05:00:40;1.10;;;0.60;;
12567;SDS011;6349;50.904;6.136;2022-12-29T05:02:40;0.53;;;0.53;;
12567;SDS011;6349;50.904;6.136;2022-12-29T05:04:42;1.17;;;0.67;;
12567;SDS011;6349;50.904;6.136;2022-12-29T05:06:42;1.23;;;0.60;;
12567;SDS011;6349;50.904;6.136;2022-12-29T05:08:43;1.13;;;0.53;;
12567;SDS011;6349;50.904;6.136;2022-12-29T05:10:45;2.00;;;0.80;;
12567;SDS011;6349;50.904;6.136;2022-12-29T05:12:46;1.53;;;0.60;;
12567;SDS011;6349;50.904;6.136;2022-12-29T05:14:46;1.83;;;0.63;;
12567;SDS011;6349;50.904;6.136;2022-12-29T05:16:47;1.77;;;0.60;;
12567;SDS011;6349;50.904;6.136;2022-12-29T05:18:48;1.30;;;0.63;;
12567;SDS011;6349;50.904;6.136;2022-12-29T05:20:49;2.50;;;0.77;;
12567;SDS011;6349;50.904;6.136;2022-12-29T05:22:50;1.10;;;0.50;;
12567;SDS011;6349;50.904;6.136;2022-12-29T05:24:51;1.27;;;0.70;;
12567;SDS011;6349;50.904;6.136;2022-12-29T05:26:51;1.30;;;0.50;;
12567;SDS011;6349;50.904;6.136;2022-12-29T05:28:52;0.97;;;0.53;;
12567;SDS011;6349;50.904;6.136;2022-12-29T05:30:53;1.57;;;0.80;;
12567;SDS011;6349;50.904;6.136;2022-12-29T05:32:53;1.23;;;0.70;;
12567;SDS011;6349;50.904;6.136;2022-12-29T05:34:54;2.43;;;0.70;;
12567;SDS011;6349;50.904;6.136;2022-12-29T05:36:55;1.20;;;0.60;;
12567;SDS011;6349;50.904;6.136;2022-12-29T05:38:56;2.00;;;0.50;;
12567;SDS011;6349;50.904;6.136;2022-12-29T05:40:56;0.60;;;0.50;;
12567;SDS011;6349;50.904;6.136;2022-12-29T05:42:57;1.23;;;0.63;;
12567;SDS011;6349;50.904;6.136;2022-12-29T05:44:58;0.97;;;0.40;;
12567;SDS011;6349;50.904;6.136;2022-12-29T05:46:58;0.60;;;0.47;;
12567;SDS011;6349;50.904;6.136;2022-12-29T05:48:59;2.43;;;0.60;;
12567;SDS011;6349;50.904;6.136;2022-12-29T05:50:59;1.80;;;0.63;;
12567;SDS011;6349;50.904;6.136;2022-12-29T05:53:00;1.87;;;0.73;;
12567;SDS011;6349;50.904;6.136;2022-12-29T05:55:01;2.13;;;0.80;;
12567;SDS011;6349;50.904;6.136;2022-12-29T05:57:02;1.13;;;0.50;;
12567;SDS011;6349;50.904;6.136;2022-12-29T05:59:02;1.13;;;0.50;;
12567;SDS011;6349;50.904;6.136;2022-12-29T06:01:03;1.13;;;0.60;;
12567;SDS011;6349;50.904;6.136;2022-12-29T06:03:04;1.13;;;0.57;;
12567;SDS011;6349;50.904;6.136;2022-12-29T06:05:06;0.80;;;0.70;;
12567;SDS011;6349;50.904;6.136;2022-12-29T06:07:07;1.57;;;0.90;;
12567;SDS011;6349;50.904;6.136;2022-12-29T06:09:09;1.23;;;0.60;;
12567;SDS011;6349;50.904;6.136;2022-12-29T06:11:10;1.33;;;0.70;;
12567;SDS011;6349;50.904;6.136;2022-12-29T06:13:11;1.57;;;0.60;;
12567;SDS011;6349;50.904;6.136;2022-12-29T06:15:12;1.70;;;0.60;;
12567;SDS011;6349;50.904;6.136;2022-12-29T06:17:15;2.37;;;0.70;;
12567;SDS011;6349;50.904;6.136;2022-12-29T06:19:15;1.50;;;0.57;;
12567;SDS011;6349;50.904;6.136;2022-12-29T06:21:16;0.80;;;0.70;;
12567;SDS011;6349;50.904;6.136;2022-12-29T06:23:17;2.10;;;0.97;;
12567;SDS011;6349;50.904;6.136;2022-12-29T06:25:18;2.73;;;0.70;;
12567;SDS011;6349;50.904;6.136;2022-12-29T06:27:19;2.37;;;0.80;;
12567;SDS011;6349;50.904;6.136;2022-12-29T06:29:22;1.77;;;0.60;;
12567;SDS011;6349;50.904;6.136;2022-12-29T06:31:23;1.63;;;0.90;;
12567;SDS011;6349;50.904;6.136;2022-12-29T06:33:24;3.57;;;0.90;;
12567;SDS011;6349;50.904;6.136;2022-12-29T06:35:26;1.43;;;0.90;;
12567;SDS011;6349;50.904;6.136;2022-12-29T06:37:26;1.93;;;0.70;;
12567;SDS011;6349;50.904;6.136;2022-12-29T06:39:27;1.60;;;0.80;;
12567;SDS011;6349;50.904;6.136;2022-12-29T06:41:28;1.33;;;0.60;;
12567;SDS011;6349;50.904;6.136;2022-12-29T06:43:29;2.17;;;0.73;;
12567;SDS011;6349;50.904;6.136;2022-12-29T06:45:30;3.33;;;1.10;;
12567;SDS011;6349;50.904;6.136;2022-12-29T06:47:31;1.13;;;0.77;;
12567;SDS011;6349;50.904;6.136;2022-12-29T06:49:32;2.63;;;0.80;;
12567;SDS011;6349;50.904;6.136;2022-12-29T06:51:32;3.00;;;0.77;;
12567;SDS011;6349;50.904;6.136;2022-12-29T06:53:33;1.57;;;1.00;;
12567;SDS011;6349;50.904;6.136;2022-12-29T06:55:34;2.33;;;0.73;;
12567;SDS011;6349;50.904;6.136;2022-12-29T06:57:34;1.20;;;0.70;;
12567;SDS011;6349;50.904;6.136;2022-12-29T06:59:36;4.33;;;0.97;;
12567;SDS011;6349;50.904;6.136;2022-12-29T07:01:37;2.43;;;0.77;;
12567;SDS011;6349;50.904;6.136;2022-12-29T07:03:38;1.13;;;0.63;;
12567;SDS011;6349;50.904;6.136;2022-12-29T07:05:42;1.30;;;0.77;;
12567;SDS011;6349;50.904;6.136;2022-12-29T07:07:42;2.07;;;0.80;;
12567;SDS011;6349;50.904;6.136;2022-12-29T07:09:43;2.30;;;0.80;;
12567;SDS011;6349;50.904;6.136;2022-12-29T07:11:44;3.97;;;0.80;;
12567;SDS011;6349;50.904;6.136;2022-12-29T07:13:45;2.17;;;1.00;;
12567;SDS011;6349;50.904;6.136;2022-12-29T07:15:46;3.43;;;1.10;;
12567;SDS011;6349;50.904;6.136;2022-12-29T07:17:47;2.77;;;0.90;;
12567;SDS011;6349;50.904;6.136;2022-12-29T07:19:49;2.60;;;1.00;;
12567;SDS011;6349;50.904;6.136;2022-12-29T07:21:50;2.17;;;0.87;;
12567;SDS011;6349;50.904;6.136;2022-12-29T07:23:50;1.43;;;0.90;;
12567;SDS011;6349;50.904;6.136;2022-12-29T07:25:59;1.27;;;0.70;;
12567;SDS011;6349;50.904;6.136;2022-12-29T07:28:01;2.17;;;0.90;;
12567;SDS011;6349;50.904;6.136;2022-12-29T07:30:02;2.20;;;1.00;;
12567;SDS011;6349;50.904;6.136;2022-12-29T07:32:03;2.03;;;0.90;;
12567;SDS011;6349;50.904;6.136;2022-12-29T07:34:04;1.87;;;0.87;;
12567;SDS011;6349;50.904;6.136;2022-12-29T07:36:05;2.53;;;0.80;;
12567;SDS011;6349;50.904;6.136;2022-12-29T07:38:06;1.33;;;0.70;;
12567;SDS011;6349;50.904;6.136;2022-12-29T07:40:07;1.77;;;1.17;;
12567;SDS011;6349;50.904;6.136;2022-12-29T07:42:09;2.70;;;1.03;;
12567;SDS011;6349;50.904;6.136;2022-12-29T07:44:10;3.80;;;1.07;;
12567;SDS011;6349;50.904;6.136;2022-12-29T07:46:10;1.63;;;0.87;;
12567;SDS011;6349;50.904;6.136;2022-12-29T07:48:11;3.87;;;0.90;;
12567;SDS011;6349;50.904;6.136;2022-12-29T07:50:12;1.50;;;1.03;;
12567;SDS011;6349;50.904;6.136;2022-12-29T07:52:12;2.93;;;0.90;;
12567;SDS011;6349;50.904;6.136;2022-12-29T07:54:13;4.00;;;1.10;;
12567;SDS011;6349;50.904;6.136;2022-12-29T07:56:13;2.13;;;1.03;;
12567;SDS011;6349;50.904;6.136;2022-12-29T07:58:14;2.90;;;1.00;;
12567;SDS011;6349;50.904;6.136;2022-12-29T08:00:15;4.00;;;1.27;;
12567;SDS011;6349;50.904;6.136;2022-12-29T08:02:15;3.50;;;1.00;;
12567;SDS011;6349;50.904;6.136;2022-12-29T08:04:16;1.93;;;1.20;;
12567;SDS011;6349;50.904;6.136;2022-12-29T08:06:17;6.47;;;1.03;;
12567;SDS011;6349;50.904;6.136;2022-12-29T08:08:19;4.00;;;1.10;;
12567;SDS011;6349;50.904;6.136;2022-12-29T08:10:23;3.43;;;1.10;;
12567;SDS011;6349;50.904;6.136;2022-12-29T08:12:24;2.50;;;1.20;;
12567;SDS011;6349;50.904;6.136;2022-12-29T08:14:26;3.20;;;1.13;;
12567;SDS011;6349;50.904;6.136;2022-12-29T08:16:28;2.40;;;1.30;;
12567;SDS011;6349;50.904;6.136;2022-12-29T08:18:29;5.43;;;1.00;;
12567;SDS011;6349;50.904;6.136;2022-12-29T08:20:31;4.47;;;1.17;;
12567;SDS011;6349;50.904;6.136;2022-12-29T08:22:33;3.87;;;1.07;;
12567;SDS011;6349;50.904;6.136;2022-12-29T08:24:34;3.57;;;1.13;;
12567;SDS011;6349;50.904;6.136;2022-12-29T08:26:36;3.90;;;1.00;;
12567;SDS011;6349;50.904;6.136;2022-12-29T08:28:37;2.50;;;1.00;;
12567;SDS011;6349;50.904;6.136;2022-12-29T08:30:39;5.07;;;1.17;;
12567;SDS011;6349;50.904;6.136;2022-12-29T08:32:41;3.87;;;0.97;;
12567;SDS011;6349;50.904;6.136;2022-12-29T08:34:43;3.53;;;1.00;;
12567;SDS011;6349;50.904;6.136;2022-12-29T08:36:43;3.80;;;1.00;;
12567;SDS011;6349;50.904;6.136;2022-12-29T08:38:44;2.80;;;1.00;;
12567;SDS011;6349;50.904;6.136;2022-12-29T08:40:45;2.00;;;0.80;;
12567;SDS011;6349;50.904;6.136;2022-12-29T08:42:46;3.60;;;1.17;;
12567;SDS011;6349;50.904;6.136;2022-12-29T08:44:48;5.23;;;1.10;;
12567;SDS011;6349;50.904;6.136;2022-12-29T08:46:51;3.00;;;1.20;;
12567;SDS011;6349;50.904;6.136;2022-12-29T08:48:53;2.53;;;1.00;;
12567;SDS011;6349;50.904;6.136;2022-12-29T08:50:55;2.97;;;1.33;;
12567;SDS011;6349;50.904;6.136;2022-12-29T08:52:57;3.13;;;1.20;;
12567;SDS011;6349;50.904;6.136;2022-12-29T08:54:57;2.50;;;0.90;;
12567;SDS011;6349;50.904;6.136;2022-12-29T08:56:58;5.20;;;1.20;;
12567;SDS011;6349;50.904;6.136;2022-12-29T08:58:58;4.33;;;1.10;;
12567;SDS011;6349;50.904;6.136;2022-12-29T09:00:59;4.33;;;1.10;;
12567;SDS011;6349;50.904;6.136;2022-12-29T09:03:00;2.43;;;1.07;;
12567;SDS011;6349;50.904;6.136;2022-12-29T09:05:00;1.77;;;0.90;;
12567;SDS011;6349;50.904;6.136;2022-12-29T09:07:01;4.10;;;1.40;;
12567;SDS011;6349;50.904;6.136;2022-12-29T09:09:01;3.70;;;1.20;;
12567;SDS011;6349;50.904;6.136;2022-12-29T09:11:06;4.70;;;1.43;;
12567;SDS011;6349;50.904;6.136;2022-12-29T09:13:08;3.77;;;1.20;;
12567;SDS011;6349;50.904;6.136;2022-12-29T09:15:09;3.83;;;1.53;;
12567;SDS011;6349;50.904;6.136;2022-12-29T09:17:10;2.73;;;1.47;;
12567;SDS011;6349;50.904;6.136;2022-12-29T09:19:31;4.30;;;0.90;;
12567;SDS011;6349;50.904;6.136;2022-12-29T09:21:31;3.80;;;1.17;;
12567;SDS011;6349;50.904;6.136;2022-12-29T09:23:33;2.97;;;1.10;;
12567;SDS011;6349;50.904;6.136;2022-12-29T09:25:34;2.40;;;1.10;;
12567;SDS011;6349;50.904;6.136;2022-12-29T09:27:35;5.10;;;1.33;;
12567;SDS011;6349;50.904;6.136;2022-12-29T09:29:36;3.07;;;1.20;;
12567;SDS011;6349;50.904;6.136;2022-12-29T09:31:36;3.93;;;1.40;;
12567;SDS011;6349;50.904;6.136;2022-12-29T09:33:37;1.43;;;0.80;;
12567;SDS011;6349;50.904;6.136;2022-12-29T09:35:42;2.33;;;1.00;;
12567;SDS011;6349;50.904;6.136;2022-12-29T09:37:43;3.97;;;1.00;;
12567;SDS011;6349;50.904;6.136;2022-12-29T09:39:44;5.30;;;1.40;;
12567;SDS011;6349;50.904;6.136;2022-12-29T09:41:49;5.20;;;1.13;;
12567;SDS011;6349;50.904;6.136;2022-12-29T09:44:06;4.60;;;1.10;;
12567;SDS011;6349;50.904;6.136;2022-12-29T09:46:34;3.70;;;1.20;;
12567;SDS011;6349;50.904;6.136;2022-12-29T09:48:39;3.07;;;0.97;;
12567;SDS011;6349;50.904;6.136;2022-12-29T09:50:46;3.80;;;0.90;;
12567;SDS011;6349;50.904;6.136;2022-12-29T09:52:52;4.03;;;1.10;;
12567;SDS011;6349;50.904;6.136;2022-12-29T09:55:05;4.47;;;1.43;;
12567;SDS011;6349;50.904;6.136;2022-12-29T09:57:16;3.97;;;1.20;;
12567;SDS011;6349;50.904;6.136;2022-12-29T09:59:34;4.43;;;1.40;;
12567;SDS011;6349;50.904;6.136;2022-12-29T10:01:42;5.47;;;1.40;;
12567;SDS011;6349;50.904;6.136;2022-12-29T10:03:50;2.83;;;1.00;;
12567;SDS011;6349;50.904;6.136;2022-12-29T10:06:26;4.70;;;1.20;;
12567;SDS011;6349;50.904;6.136;2022-12-29T10:08:22;4.83;;;1.40;;
12567;SDS011;6349;50.904;6.136;2022-12-29T10:10:37;4.20;;;1.37;;
12567;SDS011;6349;50.904;6.136;2022-12-29T10:15:13;3.57;;;1.20;;
12567;SDS011;6349;50.904;6.136;2022-12-29T10:20:29;5.13;;;1.20;;
12567;SDS011;6349;50.904;6.136;2022-12-29T10:22:47;5.60;;;1.30;;
12567;SDS011;6349;50.904;6.136;2022-12-29T10:25:12;5.73;;;1.30;;
12567;SDS011;6349;50.904;6.136;2022-12-29T10:27:18;5.07;;;1.77;;
12567;SDS011;6349;50.904;6.136;2022-12-29T10:29:20;5.07;;;1.27;;
12567;SDS011;6349;50.904;6.136;2022-12-29T10:31:29;4.83;;;1.13;;
12567;SDS011;6349;50.904;6.136;2022-12-29T10:33:40;3.47;;;1.00;;
12567;SDS011;6349;50.904;6.136;2022-12-29T10:35:41;5.37;;;1.40;;
12567;SDS011;6349;50.904;6.136;2022-12-29T10:38:20;2.87;;;1.17;;
12567;SDS011;6349;50.904;6.136;2022-12-29T10:40:26;4.73;;;1.40;;
12567;SDS011;6349;50.904;6.136;2022-12-29T10:42:34;4.57;;;1.30;;
12567;SDS011;6349;50.904;6.136;2022-12-29T10:44:40;5.37;;;1.30;;
12567;SDS011;6349;50.904;6.136;2022-12-29T10:46:41;3.27;;;1.30;;
12567;SDS011;6349;50.904;6.136;2022-12-29T10:48:43;3.13;;;1.10;;
12567;SDS011;6349;50.904;6.136;2022-12-29T10:50:47;4.17;;;1.40;;
12567;SDS011;6349;50.904;6.136;2022-12-29T10:52:49;3.97;;;1.43;;
12567;SDS011;6349;50.904;6.136;2022-12-29T10:55:07;4.67;;;1.20;;
12567;SDS011;6349;50.904;6.136;2022-12-29T10:57:19;3.00;;;1.30;;
12567;SDS011;6349;50.904;6.136;2022-12-29T10:59:31;4.17;;;1.37;;
12567;SDS011;6349;50.904;6.136;2022-12-29T11:01:37;4.87;;;1.17;;
12567;SDS011;6349;50.904;6.136;2022-12-29T11:04:02;4.03;;;1.30;;
12567;SDS011;6349;50.904;6.136;2022-12-29T11:06:10;4.27;;;1.10;;
12567;SDS011;6349;50.904;6.136;2022-12-29T11:08:19;3.70;;;1.13;;
12567;SDS011;6349;50.904;6.136;2022-12-29T11:10:34;4.73;;;1.50;;
12567;SDS011;6349;50.904;6.136;2022-12-29T11:12:38;3.47;;;1.30;;
12567;SDS011;6349;50.904;6.136;2022-12-29T11:14:39;4.03;;;1.43;;
12567;SDS011;6349;50.904;6.136;2022-12-29T11:16:41;3.43;;;1.40;;
12567;SDS011;6349;50.904;6.136;2022-12-29T11:18:44;5.83;;;1.50;;
12567;SDS011;6349;50.904;6.136;2022-12-29T11:20:47;2.77;;;1.10;;
12567;SDS011;6349;50.904;6.136;2022-12-29T11:22:48;4.57;;;1.20;;
12567;SDS011;6349;50.904;6.136;2022-12-29T11:24:50;2.17;;;0.97;;
12567;SDS011;6349;50.904;6.136;2022-12-29T11:26:53;3.20;;;1.30;;
12567;SDS011;6349;50.904;6.136;2022-12-29T11:31:25;3.30;;;1.40;;
12567;SDS011;6349;50.904;6.136;2022-12-29T11:33:27;6.00;;;1.57;;
12567;SDS011;6349;50.904;6.136;2022-12-29T11:35:33;3.90;;;1.40;;
12567;SDS011;6349;50.904;6.136;2022-12-29T11:37:39;4.97;;;1.33;;
12567;SDS011;6349;50.904;6.136;2022-12-29T11:42:03;4.67;;;1.20;;
12567;SDS011;6349;50.904;6.136;2022-12-29T11:44:05;4.30;;;1.20;;
12567;SDS011;6349;50.904;6.136;2022-12-29T11:46:06;5.53;;;2.03;;
12567;SDS011;6349;50.904;6.136;2022-12-29T11:48:16;3.43;;;1.57;;
12567;SDS011;6349;50.904;6.136;2022-12-29T11:50:20;3.87;;;1.23;;
12567;SDS011;6349;50.904;6.136;2022-12-29T11:52:23;5.20;;;1.30;;
12567;SDS011;6349;50.904;6.136;2022-12-29T11:54:29;2.87;;;1.13;;
12567;SDS011;6349;50.904;6.136;2022-12-29T11:56:34;3.97;;;1.03;;
12567;SDS011;6349;50.904;6.136;2022-12-29T11:58:37;6.67;;;1.63;;
12567;SDS011;6349;50.904;6.136;2022-12-29T12:00:38;5.53;;;1.20;;
12567;SDS011;6349;50.904;6.136;2022-12-29T12:02:40;4.47;;;1.33;;
12567;SDS011;6349;50.904;6.136;2022-12-29T12:04:46;3.53;;;1.10;;
12567;SDS011;6349;50.904;6.136;2022-12-29T12:09:19;4.00;;;1.30;;
12567;SDS011;6349;50.904;6.136;2022-12-29T12:11:28;3.60;;;1.30;;
12567;SDS011;6349;50.904;6.136;2022-12-29T12:13:39;4.40;;;1.00;;
12567;SDS011;6349;50.904;6.136;2022-12-29T12:16:04;2.83;;;1.10;;
12567;SDS011;6349;50.904;6.136;2022-12-29T12:20:54;2.73;;;1.00;;
12567;SDS011;6349;50.904;6.136;2022-12-29T12:23:02;3.83;;;1.30;;
12567;SDS011;6349;50.904;6.136;2022-12-29T12:25:18;3.93;;;1.10;;
12567;SDS011;6349;50.904;6.136;2022-12-29T12:27:26;3.73;;;1.27;;
12567;SDS011;6349;50.904;6.136;2022-12-29T12:29:38;2.73;;;1.07;;
12567;SDS011;6349;50.904;6.136;2022-12-29T12:31:47;4.07;;;1.10;;
12567;SDS011;6349;50.904;6.136;2022-12-29T12:33:57;3.00;;;1.00;;
12567;SDS011;6349;50.904;6.136;2022-12-29T12:41:09;7.37;;;1.77;;
12567;SDS011;6349;50.904;6.136;2022-12-29T12:43:06;3.30;;;0.93;;
12567;SDS011;6349;50.904;6.136;2022-12-29T12:53:25;5.17;;;1.40;;
12567;SDS011;6349;50.904;6.136;2022-12-29T12:55:46;2.60;;;0.97;;
12567;SDS011;6349;50.904;6.136;2022-12-29T13:03:06;2.40;;;1.10;;
12567;SDS011;6349;50.904;6.136;2022-12-29T13:13:24;3.07;;;1.20;;
12567;SDS011;6349;50.904;6.136;2022-12-29T13:15:44;2.03;;;0.93;;
12567;SDS011;6349;50.904;6.136;2022-12-29T13:18:10;3.47;;;1.00;;
12567;SDS011;6349;50.904;6.136;2022-12-29T13:20:24;5.53;;;1.30;;
12567;SDS011;6349;50.904;6.136;2022-12-29T13:23:14;4.10;;;1.57;;
12567;SDS011;6349;50.904;6.136;2022-12-29T13:25:10;4.70;;;1.30;;
12567;SDS011;6349;50.904;6.136;2022-12-29T13:27:41;4.20;;;1.20;;
12567;SDS011;6349;50.904;6.136;2022-12-29T13:30:23;3.57;;;1.07;;
12567;SDS011;6349;50.904;6.136;2022-12-29T13:32:21;3.43;;;1.23;;
12567;SDS011;6349;50.904;6.136;2022-12-29T13:34:48;3.30;;;1.20;;
12567;SDS011;6349;50.904;6.136;2022-12-29T13:37:04;1.87;;;0.90;;
12567;SDS011;6349;50.904;6.136;2022-12-29T13:39:17;3.60;;;1.03;;
12567;SDS011;6349;50.904;6.136;2022-12-29T13:41:30;2.57;;;0.90;;
12567;SDS011;6349;50.904;6.136;2022-12-29T13:43:36;3.23;;;1.10;;
12567;SDS011;6349;50.904;6.136;2022-12-29T13:45:40;4.37;;;1.03;;
12567;SDS011;6349;50.904;6.136;2022-12-29T13:47:44;1.80;;;0.90;;
12567;SDS011;6349;50.904;6.136;2022-12-29T13:50:08;2.27;;;1.00;;